Time;durP1;ratioP1;P1;durP2;ratioP2;P2;SDS_P1;SDS_P2;PMS_P1;PMS_P2;Temp;Humidity;BMP_temperature;BMP_pressure;BME280_temperature;BME280_humidity;BME280_pressure;Samples;Min_cycle;Max_cycle;Signal;HPM_P1;HPM_P2
2020/12/12 00:01:35;;;;;;;13.27;10.65;;;10.80;81.70;;;;;;5024610;28;20041;-77
2020/12/12 00:04:01;;;;;;;13.85;10.80;;;10.80;81.70;;;;;;5024189;28;20120;-76
2020/12/12 00:06:27;;;;;;;10.52;9.48;;;10.70;81.60;;;;;;5025921;28;20112;-77
2020/12/12 00:08:53;;;;;;;14.15;10.05;;;10.70;81.60;;;;;;5027066;28;20037;-76
2020/12/12 00:11:20;;;;;;;12.73;9.65;;;10.70;81.60;;;;;;5028277;28;20123;-76
2020/12/12 00:13:46;;;;;;;12.40;10.45;;;10.70;81.60;;;;;;5029317;28;20358;-76
2020/12/12 00:16:18;;;;;;;13.02;9.68;;;10.70;81.70;;;;;;5029210;28;20117;-76
2020/12/12 00:18:44;;;;;;;11.38;9.43;;;10.70;81.70;;;;;;5027524;28;20029;-76
2020/12/12 00:21:15;;;;;;;11.63;10.43;;;10.70;81.70;;;;;;5028869;28;20179;-76
2020/12/12 00:23:41;;;;;;;10.70;9.38;;;10.60;81.50;;;;;;5029016;28;20174;-76
2020/12/12 00:26:07;;;;;;;12.35;10.00;;;10.70;82.20;;;;;;5029124;28;20037;-76
2020/12/12 00:28:34;;;;;;;9.98;8.93;;;10.60;81.50;;;;;;5027678;28;20103;-76
2020/12/12 00:31:01;;;;;;;10.63;9.38;;;10.60;81.50;;;;;;5027739;28;20134;-76
2020/12/12 00:33:27;;;;;;;11.98;10.73;;;10.60;81.50;;;;;;5029162;28;20026;-78
2020/12/12 00:35:53;;;;;;;11.82;8.90;;;10.60;81.60;;;;;;5028167;28;20041;-76
2020/12/12 00:38:19;;;;;;;10.52;9.43;;;10.60;81.60;;;;;;5029398;28;20144;-76
2020/12/12 00:40:45;;;;;;;11.85;8.90;;;10.60;81.60;;;;;;5029646;28;20025;-75
2020/12/12 00:43:11;;;;;;;10.88;8.88;;;10.50;81.40;;;;;;5029126;28;20026;-76
2020/12/12 00:45:37;;;;;;;11.88;9.50;;;10.60;81.60;;;;;;5027846;28;20068;-76
2020/12/12 00:48:03;;;;;;;14.90;9.40;;;10.50;81.40;;;;;;5027274;28;20059;-76
2020/12/12 00:50:29;;;;;;;12.85;9.35;;;10.50;81.40;;;;;;5027301;28;20338;-76
2020/12/12 00:52:55;;;;;;;10.68;8.55;;;10.50;81.40;;;;;;5028793;28;20029;-76
2020/12/12 00:55:21;;;;;;;10.02;8.55;;;10.50;81.50;;;;;;5028360;28;20429;-76
2020/12/12 00:57:47;;;;;;;9.75;8.38;;;10.50;81.50;;;;;;5027611;28;20130;-77
2020/12/12 01:00:13;;;;;;;13.30;8.57;;;10.50;81.50;;;;;;5026975;28;20033;-75
2020/12/12 01:02:39;;;;;;;9.70;8.70;;;10.50;81.50;;;;;;5026887;28;20060;-76
2020/12/12 01:05:06;;;;;;;11.57;8.82;;;10.50;81.50;;;;;;5027699;28;20183;-75
2020/12/12 01:07:32;;;;;;;10.43;8.32;;;10.50;81.50;;;;;;5028770;28;20029;-76
2020/12/12 01:09:58;;;;;;;9.35;8.38;;;10.50;81.60;;;;;;5028818;28;20418;-77
2020/12/12 01:12:24;;;;;;;10.40;8.55;;;10.40;81.40;;;;;;5028273;28;20056;-76
2020/12/12 01:14:49;;;;;;;9.45;8.52;;;10.40;81.40;;;;;;5029005;28;20404;-76
2020/12/12 01:17:15;;;;;;;12.95;9.40;;;10.40;81.40;;;;;;5028285;28;20068;-77
2020/12/12 01:19:41;;;;;;;17.73;9.77;;;10.40;81.40;;;;;;5027656;28;20389;-75
2020/12/12 01:22:07;;;;;;;10.55;7.32;;;10.40;81.40;;;;;;5028540;28;20406;-78
2020/12/12 01:24:33;;;;;;;10.07;8.57;;;10.40;81.40;;;;;;5028065;28;20083;-75
2020/12/12 01:26:59;;;;;;;10.50;8.05;;;10.40;81.40;;;;;;5027787;28;20025;-75
2020/12/12 01:29:25;;;;;;;10.63;8.05;;;10.40;81.40;;;;;;5027537;28;20029;-76
2020/12/12 01:31:51;;;;;;;11.18;8.63;;;10.40;81.60;;;;;;5027767;28;20037;-77
2020/12/12 01:34:17;;;;;;;10.93;8.50;;;10.40;81.50;;;;;;5027551;28;20116;-76
2020/12/12 01:36:46;;;;;;;9.68;8.48;;;10.40;81.50;;;;;;5026558;28;20041;-76
2020/12/12 01:39:11;;;;;;;9.10;8.05;;;10.30;81.30;;;;;;5027890;28;20060;-76
2020/12/12 01:41:37;;;;;;;9.43;8.43;;;10.30;81.30;;;;;;5027692;28;20429;-77
2020/12/12 01:44:03;;;;;;;10.40;8.20;;;10.30;81.30;;;;;;5026538;28;20036;-76
2020/12/12 01:46:32;;;;;;;13.18;8.90;;;10.30;81.30;;;;;;5028298;28;20048;-76
2020/12/12 01:48:58;;;;;;;11.48;8.75;;;10.30;81.30;;;;;;5025877;28;20455;-76
2020/12/12 01:51:27;;;;;;;10.93;8.13;;;10.30;81.30;;;;;;5027107;28;20084;-75
2020/12/12 01:53:56;;;;;;;9.65;7.82;;;10.30;81.30;;;;;;5026027;28;20067;-77
2020/12/12 01:56:23;;;;;;;11.50;8.30;;;10.30;81.30;;;;;;5026312;28;20048;-76
2020/12/12 01:58:49;;;;;;;10.20;8.55;;;10.30;81.30;;;;;;5025658;28;20485;-77
2020/12/12 02:01:16;;;;;;;8.90;7.95;;;10.30;81.30;;;;;;5027423;28;20041;-76
2020/12/12 02:03:43;;;;;;;8.70;7.80;;;10.30;81.30;;;;;;5025957;28;20033;-77
2020/12/12 02:06:13;;;;;;;12.48;8.52;;;10.30;81.30;;;;;;5026817;28;20037;-76
2020/12/12 02:08:40;;;;;;;8.30;7.53;;;10.30;81.30;;;;;;5027233;28;20272;-77
2020/12/12 02:11:11;;;;;;;13.32;8.70;;;10.20;81.10;;;;;;5027016;28;20048;-75
2020/12/12 02:13:39;;;;;;;9.13;8.02;;;10.20;81.20;;;;;;5025731;28;20096;-76
2020/12/12 02:16:05;;;;;;;9.48;7.65;;;10.20;81.20;;;;;;5026983;28;20037;-76
2020/12/12 02:18:31;;;;;;;8.48;7.60;;;10.30;81.40;;;;;;5009265;28;20155;-76
2020/12/12 02:20:59;;;;;;;12.02;8.52;;;10.20;81.20;;;;;;5009347;28;20496;-76
2020/12/12 02:23:26;;;;;;;11.18;7.82;;;10.20;81.20;;;;;;5025286;28;20060;-76
2020/12/12 02:25:52;;;;;;;9.07;7.60;;;10.20;81.20;;;;;;5027235;28;20621;-76
2020/12/12 02:28:21;;;;;;;10.73;7.85;;;10.20;81.20;;;;;;5024749;28;20500;-77
2020/12/12 02:30:47;;;;;;;12.38;8.35;;;10.20;81.20;;;;;;5025821;28;20052;-76
2020/12/12 02:33:14;;;;;;;11.20;8.32;;;10.20;81.20;;;;;;5025039;28;20052;-77
2020/12/12 02:35:40;;;;;;;12.20;8.15;;;10.20;81.20;;;;;;5026389;28;20044;-76
2020/12/12 02:38:06;;;;;;;13.15;8.25;;;10.20;81.20;;;;;;5026601;28;20026;-75
2020/12/12 02:40:32;;;;;;;11.10;9.18;;;10.20;81.20;;;;;;4992446;28;20031;-75
2020/12/12 02:42:58;;;;;;;15.50;9.68;;;10.20;81.20;;;;;;5009141;28;20040;-75
2020/12/12 02:45:24;;;;;;;9.95;8.25;;;10.20;81.20;;;;;;5026418;28;20025;-75
2020/12/12 02:47:50;;;;;;;8.32;7.50;;;10.20;81.20;;;;;;5028397;28;20057;-74
2020/12/12 02:50:25;;;;;;;10.82;8.70;;;10.20;81.20;;;;;;5029618;28;20037;-74
2020/12/12 02:52:51;;;;;;;9.00;8.15;;;10.20;81.20;;;;;;5029838;28;20368;-75
2020/12/12 02:55:17;;;;;;;14.70;8.52;;;10.20;81.20;;;;;;5028406;28;20037;-75
2020/12/12 02:57:42;;;;;;;10.77;8.90;;;10.20;81.20;;;;;;5028600;28;20033;-76
2020/12/12 03:00:14;;;;;;;11.02;7.88;;;10.10;81.00;;;;;;5028433;28;20530;-76
2020/12/12 03:02:40;;;;;;;11.98;8.30;;;10.20;81.20;;;;;;5028610;28;20025;-77
2020/12/12 03:05:07;;;;;;;10.55;8.30;;;10.20;81.20;;;;;;5029404;28;20279;-75
2020/12/12 03:07:34;;;;;;;9.82;8.27;;;10.20;81.20;;;;;;5029594;28;20065;-75
2020/12/12 03:10:04;;;;;;;10.90;7.95;;;10.20;81.40;;;;;;5027998;28;20044;-75
2020/12/12 03:12:32;;;;;;;11.18;8.23;;;10.20;81.20;;;;;;5029492;28;20032;-75
2020/12/12 03:14:58;;;;;;;7.90;7.07;;;10.10;81.00;;;;;;5027994;28;20037;-75
2020/12/12 03:17:25;;;;;;;9.20;7.95;;;10.20;81.20;;;;;;5027829;28;20029;-74
2020/12/12 03:19:51;;;;;;;8.70;7.10;;;10.20;81.20;;;;;;5027769;28;20025;-76
2020/12/12 03:22:17;;;;;;;8.85;7.18;;;10.10;81.10;;;;;;5027862;28;20030;-75
2020/12/12 03:24:43;;;;;;;9.60;7.10;;;10.20;81.20;;;;;;5029061;28;20504;-75
2020/12/12 03:27:09;;;;;;;9.15;7.43;;;10.10;81.10;;;;;;5027912;28;20033;-75
2020/12/12 03:29:38;;;;;;;7.75;6.90;;;10.10;81.10;;;;;;5029242;28;20062;-74
2020/12/12 03:32:08;;;;;;;7.43;6.72;;;10.10;81.10;;;;;;5028172;28;20063;-75
2020/12/12 03:34:38;;;;;;;6.68;6.07;;;10.10;81.60;;;;;;5027758;28;20125;-75
2020/12/12 03:37:06;;;;;;;12.23;6.72;;;10.20;81.20;;;;;;5029451;28;20231;-75
2020/12/12 03:39:32;;;;;;;7.72;6.68;;;10.20;81.20;;;;;;5027876;28;20418;-76
2020/12/12 03:41:58;;;;;;;9.85;7.15;;;10.10;81.10;;;;;;5029721;28;20083;-74
2020/12/12 03:44:24;;;;;;;7.50;6.20;;;10.10;81.10;;;;;;5032032;28;20029;-76
2020/12/12 03:46:50;;;;;;;7.20;6.50;;;10.20;81.70;;;;;;5032927;28;20053;-76
2020/12/12 03:49:16;;;;;;;8.32;6.78;;;10.10;81.00;;;;;;5031709;28;20064;-75
2020/12/12 03:51:42;;;;;;;7.15;5.65;;;10.10;81.10;;;;;;5031664;28;20033;-75
2020/12/12 03:54:08;;;;;;;7.40;6.03;;;10.10;81.10;;;;;;5031621;28;20025;-76
2020/12/12 03:56:34;;;;;;;6.55;5.57;;;10.10;81.10;;;;;;5033111;28;20105;-76
2020/12/12 03:59:00;;;;;;;7.00;5.95;;;10.10;81.00;;;;;;5015168;28;20034;-76
2020/12/12 04:01:26;;;;;;;8.95;6.00;;;10.10;81.00;;;;;;5031801;28;20036;-76
2020/12/12 04:03:52;;;;;;;6.72;5.65;;;10.10;81.00;;;;;;5031630;28;20037;-75
2020/12/12 04:06:18;;;;;;;7.38;5.95;;;10.10;81.10;;;;;;5015078;28;20035;-76
2020/12/12 04:08:44;;;;;;;5.50;5.00;;;10.10;81.00;;;;;;5033322;28;20154;-75
2020/12/12 04:11:10;;;;;;;6.78;5.75;;;10.10;81.10;;;;;;5031628;28;20480;-76
2020/12/12 04:13:36;;;;;;;6.45;5.85;;;10.10;81.00;;;;;;5031300;28;20175;-75
2020/12/12 04:16:02;;;;;;;5.88;5.28;;;10.10;81.00;;;;;;5031413;28;20036;-76
2020/12/12 04:18:28;;;;;;;8.07;5.30;;;10.10;81.10;;;;;;5031261;28;20170;-77
2020/12/12 04:20:54;;;;;;;5.03;4.55;;;10.10;81.10;;;;;;5014849;28;20060;-76
2020/12/12 04:23:20;;;;;;;8.32;4.85;;;10.10;81.10;;;;;;5032597;28;20034;-76
2020/12/12 04:25:46;;;;;;;6.97;5.05;;;10.10;81.10;;;;;;5032356;28;20345;-77
2020/12/12 04:28:12;;;;;;;8.13;5.10;;;10.10;81.10;;;;;;5032607;28;20029;-76
2020/12/12 04:30:38;;;;;;;5.28;4.53;;;10.10;81.10;;;;;;5032278;28;20063;-76
2020/12/12 04:33:04;;;;;;;4.78;4.28;;;10.10;81.10;;;;;;5031287;28;20065;-77
2020/12/12 04:35:30;;;;;;;5.82;5.32;;;10.10;81.10;;;;;;5032408;28;20119;-77
2020/12/12 04:37:56;;;;;;;6.25;4.32;;;10.10;81.10;;;;;;5032512;28;20105;-76
2020/12/12 04:40:22;;;;;;;5.70;4.40;;;10.10;81.10;;;;;;5032530;28;20473;-76
2020/12/12 04:42:48;;;;;;;6.35;4.53;;;10.10;81.10;;;;;;5031974;28;20432;-76
2020/12/12 04:45:20;;;;;;;4.85;4.35;;;10.10;81.10;;;;;;5031295;28;20140;-75
2020/12/12 04:47:51;;;;;;;6.90;4.28;;;10.10;81.00;;;;;;5031846;28;20056;-76
2020/12/12 04:50:28;;;;;;;6.18;3.75;;;10.10;81.00;;;;;;5031707;28;20065;-76
2020/12/12 04:53:05;;;;;;;7.65;4.72;;;10.10;81.00;;;;;;5030590;28;20121;-77
2020/12/12 04:55:31;;;;;;;5.68;3.78;;;10.10;81.00;;;;;;5031229;28;20038;-76
2020/12/12 04:57:58;;;;;;;4.88;4.32;;;10.00;80.80;;;;;;5030203;28;20284;-76
2020/12/12 05:00:26;;;;;;;4.78;4.07;;;10.10;81.00;;;;;;5030538;28;20272;-76
2020/12/12 05:02:52;;;;;;;4.93;4.25;;;10.00;80.80;;;;;;5031878;28;20025;-76
2020/12/12 05:05:18;;;;;;;3.97;3.55;;;10.00;80.80;;;;;;5031876;28;20051;-75
2020/12/12 05:07:44;;;;;;;5.43;3.90;;;10.10;81.00;;;;;;5031927;28;20030;-76
2020/12/12 05:10:10;;;;;;;4.50;3.63;;;10.00;80.80;;;;;;5031660;28;20103;-76
2020/12/12 05:12:36;;;;;;;4.32;3.30;;;10.00;80.80;;;;;;5032423;28;20029;-75
2020/12/12 05:15:03;;;;;;;4.20;3.67;;;10.00;80.80;;;;;;5030398;28;20029;-76
2020/12/12 05:17:29;;;;;;;4.10;3.60;;;10.00;80.80;;;;;;5031223;28;20021;-75
2020/12/12 05:19:58;;;;;;;4.93;3.70;;;10.00;80.80;;;;;;5031427;28;20034;-76
2020/12/12 05:22:24;;;;;;;7.13;4.05;;;10.00;80.80;;;;;;5029725;28;20383;-77
2020/12/12 05:24:53;;;;;;;3.50;3.17;;;10.00;80.80;;;;;;5028941;28;20617;-76
2020/12/12 05:27:19;;;;;;;6.70;3.92;;;10.00;80.80;;;;;;5030118;28;20029;-76
2020/12/12 05:29:46;;;;;;;4.22;3.92;;;10.00;80.80;;;;;;5028800;28;20067;-76
2020/12/12 05:32:12;;;;;;;4.68;3.47;;;10.00;80.80;;;;;;5012610;28;20021;-76
2020/12/12 05:34:40;;;;;;;3.67;2.70;;;10.00;80.80;;;;;;5012199;28;20053;-76
2020/12/12 05:37:06;;;;;;;3.53;3.10;;;10.00;80.80;;;;;;5029229;28;20026;-77
2020/12/12 05:39:32;;;;;;;4.50;3.20;;;10.00;80.80;;;;;;5028661;28;20498;-76
2020/12/12 05:42:00;;;;;;;5.70;3.53;;;10.00;80.80;;;;;;5030425;28;20144;-76
2020/12/12 05:44:26;;;;;;;4.45;3.50;;;10.00;80.80;;;;;;5029475;28;20124;-76
2020/12/12 05:46:52;;;;;;;8.98;3.63;;;10.00;80.80;;;;;;5030462;28;20075;-77
2020/12/12 05:49:19;;;;;;;4.38;3.05;;;10.00;80.80;;;;;;5007662;28;20038;-77
2020/12/12 05:51:51;;;;;;;3.55;3.20;;;10.00;80.80;;;;;;5007925;28;20113;-77
2020/12/12 05:54:17;;;;;;;5.00;3.53;;;10.00;80.80;;;;;;5007772;28;20388;-77
2020/12/12 05:56:44;;;;;;;8.43;3.42;;;9.90;80.60;;;;;;5007558;28;20037;-77
2020/12/12 05:59:12;;;;;;;4.05;2.95;;;10.00;80.80;;;;;;5022213;28;20067;-77
2020/12/12 06:01:41;;;;;;;4.82;2.85;;;9.90;80.70;;;;;;5027254;28;20036;-77
2020/12/12 06:04:14;;;;;;;4.47;3.17;;;9.90;80.70;;;;;;5027437;28;20033;-76
2020/12/12 06:06:45;;;;;;;5.22;3.30;;;9.90;80.70;;;;;;5026537;28;20214;-76
2020/12/12 06:09:15;;;;;;;4.40;3.55;;;9.90;80.70;;;;;;5026959;28;20029;-77
2020/12/12 06:11:45;;;;;;;4.18;3.30;;;9.90;80.70;;;;;;5026998;28;20374;-77
2020/12/12 06:14:12;;;;;;;6.30;3.53;;;9.90;80.70;;;;;;5025593;28;20501;-76
2020/12/12 06:16:40;;;;;;;5.40;3.05;;;9.80;80.50;;;;;;5026725;28;20040;-77
2020/12/12 06:19:14;;;;;;;3.15;2.47;;;9.90;80.70;;;;;;5025823;28;20068;-76
2020/12/12 06:21:42;;;;;;;4.55;3.17;;;9.80;80.50;;;;;;5026775;28;20197;-75
2020/12/12 06:24:14;;;;;;;4.35;3.05;;;9.80;80.50;;;;;;5025541;28;20026;-76
2020/12/12 06:27:09;;;;;;;3.53;2.75;;;9.80;80.50;;;;;;5026823;28;20317;-76
2020/12/12 06:29:46;;;;;;;5.10;2.67;;;9.80;80.60;;;;;;5024694;28;20461;-76
2020/12/12 06:32:17;;;;;;;4.30;3.15;;;9.80;80.60;;;;;;5026910;28;20133;-78
2020/12/12 06:34:45;;;;;;;3.95;3.03;;;9.80;80.50;;;;;;5026501;28;20029;-77
2020/12/12 06:37:29;;;;;;;5.78;3.03;;;9.80;80.50;;;;;;5008067;28;20377;-78
2020/12/12 06:39:57;;;;;;;4.95;3.42;;;9.80;80.50;;;;;;5026097;28;20040;-76
2020/12/12 06:42:29;;;;;;;5.70;3.08;;;9.80;80.70;;;;;;5024885;28;20109;-75
2020/12/12 06:44:55;;;;;;;6.45;3.58;;;9.80;80.60;;;;;;5025915;28;20036;-76
2020/12/12 06:47:41;;;;;;;6.72;2.97;;;9.80;80.70;;;;;;5024692;28;20049;-80
2020/12/12 06:50:10;;;;;;;7.68;3.22;;;9.80;80.70;;;;;;5006558;28;20045;-80
2020/12/12 06:52:36;;;;;;;10.05;3.33;;;9.80;80.70;;;;;;5006879;28;20030;-79
2020/12/12 06:55:08;;;;;;;8.20;3.70;;;9.80;80.70;;;;;;5006573;28;20057;-77
2020/12/12 06:57:39;;;;;;;3.97;3.10;;;9.80;80.70;;;;;;5007902;28;20507;-77
2020/12/12 07:00:08;;;;;;;5.75;3.10;;;9.80;80.80;;;;;;5026210;28;20436;-78
2020/12/12 07:02:34;;;;;;;5.28;2.83;;;9.80;80.80;;;;;;5026203;28;20060;-78
2020/12/12 07:05:20;;;;;;;9.23;3.25;;;9.80;81.30;;;;;;5025357;28;20071;-76
2020/12/12 07:07:46;;;;;;;6.38;3.22;;;9.80;80.90;;;;;;5025913;28;20501;-77
2020/12/12 07:10:12;;;;;;;8.38;3.30;;;9.80;80.90;;;;;;5026547;28;20065;-77
2020/12/12 07:12:38;;;;;;;6.68;3.80;;;9.80;81.00;;;;;;5026551;28;20040;-77
2020/12/12 07:15:05;;;;;;;6.35;3.47;;;9.80;81.00;;;;;;5026721;28;20061;-78
2020/12/12 07:17:33;;;;;;;5.38;2.70;;;9.80;81.10;;;;;;5025758;28;20108;-78
2020/12/12 07:19:59;;;;;;;7.25;3.42;;;9.80;81.50;;;;;;5024675;28;20061;-79
2020/12/12 07:22:26;;;;;;;6.57;2.40;;;9.90;81.90;;;;;;5024741;28;20120;-78
2020/12/12 07:24:53;;;;;;;5.13;2.80;;;10.00;82.10;;;;;;5023720;28;20481;-77
2020/12/12 07:27:19;;;;;;;6.25;3.10;;;10.20;82.40;;;;;;5024477;28;20124;-76
2020/12/12 07:29:45;;;;;;;6.72;2.92;;;10.30;82.60;;;;;;5024940;28;20436;-76
2020/12/12 07:32:11;;;;;;;9.35;2.90;;;10.40;82.70;;;;;;5024844;28;20036;-77
2020/12/12 07:34:36;;;;;;;7.38;2.80;;;10.50;82.70;;;;;;5025776;28;20117;-77
2020/12/12 07:37:08;;;;;;;7.00;2.63;;;10.50;82.60;;;;;;5025714;28;20075;-75
2020/12/12 07:39:42;;;;;;;7.68;3.05;;;10.50;82.50;;;;;;5024117;28;20076;-75
2020/12/12 07:42:11;;;;;;;8.70;2.33;;;10.60;82.60;;;;;;5024769;28;20029;-75
2020/12/12 07:44:40;;;;;;;9.23;3.08;;;10.50;82.40;;;;;;5024155;28;20167;-75
2020/12/12 07:47:08;;;;;;;5.30;2.85;;;10.50;82.40;;;;;;5023671;28;20049;-77
2020/12/12 07:49:36;;;;;;;3.47;2.42;;;10.50;82.40;;;;;;5023140;28;20453;-76
2020/12/12 07:52:09;;;;;;;8.05;3.40;;;10.40;82.30;;;;;;5024623;28;20338;-76
2020/12/12 07:54:51;;;;;;;9.48;3.20;;;10.40;82.40;;;;;;5026235;28;20045;-76
2020/12/12 07:57:17;;;;;;;8.85;3.65;;;10.40;82.50;;;;;;5023893;28;20029;-76
2020/12/12 07:59:43;;;;;;;9.32;3.40;;;10.30;82.30;;;;;;5007566;28;20457;-75
2020/12/12 08:02:12;;;;;;;6.72;2.88;;;10.30;82.40;;;;;;5007945;28;20029;-76
2020/12/12 08:04:38;;;;;;;5.28;2.97;;;10.20;82.30;;;;;;5025509;28;20034;-76
2020/12/12 08:07:11;;;;;;;7.63;2.75;;;10.20;82.30;;;;;;5024985;28;20416;-76
2020/12/12 08:09:37;;;;;;;3.55;2.47;;;10.20;82.30;;;;;;5024455;28;20046;-77
2020/12/12 08:12:04;;;;;;;6.57;2.85;;;10.10;82.20;;;;;;5008200;28;20543;-76
2020/12/12 08:14:42;;;;;;;4.22;2.67;;;10.10;82.20;;;;;;5007884;28;20066;-76
2020/12/12 08:17:11;;;;;;;7.03;2.47;;;10.10;82.20;;;;;;5024697;28;20037;-77
2020/12/12 08:19:45;;;;;;;5.57;2.53;;;10.10;82.30;;;;;;5025925;28;20030;-77
2020/12/12 08:22:20;;;;;;;4.75;2.30;;;10.00;82.10;;;;;;5024514;28;20429;-77
2020/12/12 08:24:48;;;;;;;8.98;3.35;;;10.00;82.10;;;;;;5026197;28;20037;-77
2020/12/12 08:27:17;;;;;;;7.40;2.28;;;10.00;82.10;;;;;;5024518;28;20136;-77
2020/12/12 08:29:49;;;;;;;5.53;2.88;;;10.00;82.10;;;;;;5027261;28;20099;-77
2020/12/12 08:32:31;;;;;;;10.05;2.88;;;9.90;82.00;;;;;;5029324;28;20428;-77
2020/12/12 08:35:11;;;;;;;7.22;3.30;;;9.90;82.00;;;;;;5026172;28;20275;-78
2020/12/12 08:37:38;;;;;;;7.30;2.80;;;9.90;82.00;;;;;;5028778;28;20521;-78
2020/12/12 08:40:10;;;;;;;7.78;3.45;;;9.90;81.90;;;;;;5029571;28;20046;-77
2020/12/12 08:42:36;;;;;;;4.20;2.78;;;9.90;81.90;;;;;;5029600;28;20487;-78
2020/12/12 08:45:32;;;;;;;8.07;2.67;;;9.90;82.00;;;;;;5029336;28;20112;-77
2020/12/12 08:48:06;;;;;;;6.75;2.38;;;9.90;82.00;;;;;;5019996;28;20455;-76
2020/12/12 08:50:47;;;;;;;9.43;3.63;;;9.90;82.00;;;;;;5027037;28;20148;-79
2020/12/12 08:53:22;;;;;;;7.35;2.72;;;9.90;82.00;;;;;;5026161;28;20037;-77
2020/12/12 08:56:29;;;;;;;7.47;2.72;;;9.80;81.80;;;;;;5028184;28;20041;-79
2020/12/12 08:59:04;;;;;;;6.32;2.80;;;9.90;81.90;;;;;;5025756;28;20088;-79
2020/12/12 09:01:36;;;;;;;8.68;2.75;;;9.90;81.90;;;;;;5028597;28;20033;-78
2020/12/12 09:04:04;;;;;;;6.63;2.78;;;9.90;81.90;;;;;;5028430;28;20033;-79
2020/12/12 09:06:52;;;;;;;6.88;2.90;;;9.90;81.80;;;;;;5026895;28;20396;-79
2020/12/12 09:09:26;;;;;;;9.98;3.30;;;9.90;81.80;;;;;;5006731;28;20242;-80
2020/12/12 09:12:02;;;;;;;7.70;2.50;;;9.90;82.30;;;;;;5006651;28;20148;-80
2020/12/12 09:14:30;;;;;;;7.00;3.10;;;9.80;81.60;;;;;;5026968;28;20034;-78
2020/12/12 09:16:58;;;;;;;6.63;2.50;;;9.90;81.70;;;;;;5026797;28;20071;-81
2020/12/12 09:19:25;;;;;;;9.38;2.83;;;9.80;81.50;;;;;;5027248;28;20033;-79
2020/12/12 09:21:52;;;;;;;6.43;2.88;;;9.80;81.50;;;;;;5026815;28;20311;-80
2020/12/12 09:24:19;;;;;;;8.35;2.85;;;9.80;81.50;;;;;;5026004;28;20029;-80
2020/12/12 09:26:49;;;;;;;11.30;2.83;;;9.80;81.50;;;;;;5026739;28;20096;-80
2020/12/12 09:29:15;;;;;;;6.38;2.75;;;9.80;81.50;;;;;;5028515;28;20462;-80
2020/12/12 09:31:41;;;;;;;3.95;2.35;;;9.70;81.30;;;;;;5027034;28;20437;-79
2020/12/12 09:34:07;;;;;;;11.35;3.35;;;9.80;81.50;;;;;;5028310;28;20099;-80
2020/12/12 09:36:33;;;;;;;7.28;2.72;;;9.80;81.50;;;;;;5028089;28;20489;-80
2020/12/12 09:38:59;;;;;;;10.43;3.30;;;9.80;81.50;;;;;;5027731;28;20033;-80
2020/12/12 09:41:25;;;;;;;6.93;2.42;;;9.80;81.50;;;;;;5009891;28;20033;-80
2020/12/12 09:43:52;;;;;;;5.00;2.42;;;9.80;81.40;;;;;;5026921;28;20087;-79
2020/12/12 09:46:18;;;;;;;5.65;2.83;;;9.80;81.40;;;;;;5025771;28;20061;-78
2020/12/12 09:48:46;;;;;;;15.80;3.38;;;9.80;81.40;;;;;;5027773;28;20029;-79
2020/12/12 09:51:14;;;;;;;7.03;3.38;;;9.80;81.40;;;;;;5025907;28;20038;-79
2020/12/12 09:53:41;;;;;;;5.72;3.00;;;9.80;81.40;;;;;;5009568;28;20030;-78
2020/12/12 09:56:07;;;;;;;5.97;2.42;;;9.80;81.30;;;;;;5025785;28;20037;-77
2020/12/12 09:58:33;;;;;;;4.78;2.65;;;9.80;81.30;;;;;;5026595;28;20037;-77
2020/12/12 10:00:59;;;;;;;5.30;2.92;;;9.80;81.30;;;;;;5026063;28;20036;-78
2020/12/12 10:03:25;;;;;;;8.55;3.45;;;9.90;81.50;;;;;;5009839;28;20442;-78
2020/12/12 10:05:51;;;;;;;7.95;2.90;;;9.90;81.40;;;;;;5026959;28;20469;-79
2020/12/12 10:08:17;;;;;;;11.27;3.63;;;9.80;81.20;;;;;;5025888;28;20066;-79
2020/12/12 10:10:43;;;;;;;8.23;3.25;;;9.80;81.10;;;;;;5026331;28;20333;-79
2020/12/12 10:13:09;;;;;;;6.00;2.88;;;9.80;81.10;;;;;;5025787;28;20048;-80
2020/12/12 10:15:35;;;;;;;12.82;2.75;;;9.80;81.00;;;;;;5027189;28;20075;-79
2020/12/12 10:18:01;;;;;;;6.72;3.05;;;9.80;81.00;;;;;;5027487;28;20371;-81
2020/12/12 10:20:27;;;;;;;7.60;3.38;;;9.80;81.00;;;;;;5025526;28;20037;-81
2020/12/12 10:22:53;;;;;;;7.78;2.50;;;9.80;81.00;;;;;;5009840;28;20167;-79
2020/12/12 10:25:19;;;;;;;8.65;3.58;;;9.80;81.10;;;;;;5009225;28;20044;-80
2020/12/12 10:27:45;;;;;;;9.85;3.15;;;9.80;81.30;;;;;;5025546;28;20029;-80
2020/12/12 10:30:13;;;;;;;8.23;2.80;;;9.90;81.40;;;;;;5022509;28;20041;-80
2020/12/12 10:32:40;;;;;;;11.02;3.53;;;9.90;81.40;;;;;;5025120;28;20082;-80
2020/12/12 10:35:08;;;;;;;8.40;2.83;;;10.00;81.50;;;;;;5008980;28;20529;-80
2020/12/12 10:37:34;;;;;;;6.50;2.40;;;10.00;81.40;;;;;;5025950;28;20021;-80
2020/12/12 10:40:10;;;;;;;7.00;2.35;;;10.00;81.40;;;;;;5026992;28;20556;-79
2020/12/12 10:42:36;;;;;;;10.98;3.20;;;10.00;81.40;;;;;;5027334;28;20030;-79
2020/12/12 10:45:04;;;;;;;7.60;3.05;;;10.00;81.40;;;;;;5026850;28;20459;-80
2020/12/12 10:47:30;;;;;;;8.27;3.30;;;10.00;81.40;;;;;;5025343;28;20060;-80
2020/12/12 10:49:56;;;;;;;6.78;2.88;;;10.00;81.30;;;;;;5025339;28;20151;-80
2020/12/12 10:52:22;;;;;;;7.13;3.58;;;10.00;81.30;;;;;;5025370;28;20198;-79
2020/12/12 10:54:50;;;;;;;9.93;3.40;;;10.00;81.30;;;;;;5008864;28;20170;-78
2020/12/12 10:57:16;;;;;;;5.57;3.13;;;10.00;81.30;;;;;;5024732;28;20029;-78
2020/12/12 10:59:42;;;;;;;9.65;3.00;;;10.00;81.20;;;;;;5026672;28;20116;-79
2020/12/12 11:02:12;;;;;;;8.68;2.70;;;9.90;81.00;;;;;;5025075;28;20451;-79
2020/12/12 11:04:42;;;;;;;16.67;3.28;;;10.00;81.20;;;;;;5025805;28;20034;-80
2020/12/12 11:07:09;;;;;;;12.40;3.42;;;10.00;81.20;;;;;;5025650;28;20053;-79
2020/12/12 11:09:36;;;;;;;6.07;2.85;;;10.00;81.20;;;;;;5026297;28;20041;-79
2020/12/12 11:12:03;;;;;;;9.18;3.15;;;9.90;81.00;;;;;;5026700;28;20025;-79
2020/12/12 11:14:32;;;;;;;5.95;2.58;;;9.90;80.90;;;;;;5026296;28;20036;-80
2020/12/12 11:17:02;;;;;;;10.18;2.83;;;9.90;80.90;;;;;;5025221;28;20560;-80
2020/12/12 11:19:28;;;;;;;7.28;2.42;;;9.90;80.90;;;;;;5024401;28;20040;-79
2020/12/12 11:21:55;;;;;;;8.98;2.92;;;9.90;80.90;;;;;;5026109;28;20066;-78
2020/12/12 11:24:23;;;;;;;7.45;2.88;;;9.90;80.90;;;;;;5026440;28;20367;-78
2020/12/12 11:26:49;;;;;;;9.23;3.80;;;9.90;80.90;;;;;;5026556;28;20091;-78
2020/12/12 11:29:15;;;;;;;6.38;2.63;;;9.90;80.90;;;;;;5024418;28;20034;-78
2020/12/12 11:31:45;;;;;;;10.75;3.20;;;9.90;80.90;;;;;;5026117;28;20067;-78
2020/12/12 11:34:19;;;;;;;5.93;2.80;;;9.90;80.90;;;;;;5024996;28;20330;-80
2020/12/12 11:37:05;;;;;;;6.18;2.90;;;9.90;80.90;;;;;;5024249;28;20136;-78
2020/12/12 11:42:34;;;;;;;7.22;3.10;;;9.90;80.90;;;;;;5024745;28;20030;-78
2020/12/12 11:47:58;;;;;;;4.80;2.25;;;9.90;80.80;;;;;;5018900;28;20083;-79
2020/12/12 11:50:25;;;;;;;6.40;2.40;;;9.90;80.80;;;;;;5023972;28;20509;-79
2020/12/12 11:52:54;;;;;;;7.35;2.75;;;9.90;80.70;;;;;;5026576;28;20475;-80
2020/12/12 11:55:20;;;;;;;10.32;2.92;;;9.90;80.70;;;;;;5026526;28;20124;-79
2020/12/12 11:57:46;;;;;;;7.10;2.50;;;9.90;80.70;;;;;;5024775;28;20120;-79
2020/12/12 12:00:13;;;;;;;7.75;3.17;;;9.90;80.70;;;;;;5013617;28;20029;-80
2020/12/12 12:02:41;;;;;;;4.65;2.35;;;9.90;80.70;;;;;;5015692;28;20398;-78
2020/12/12 12:05:07;;;;;;;6.65;2.88;;;10.00;81.30;;;;;;5024624;28;20453;-77
2020/12/12 12:07:40;;;;;;;5.25;2.67;;;10.00;80.80;;;;;;5010277;28;20064;-80
2020/12/12 12:10:12;;;;;;;3.38;2.00;;;10.00;80.80;;;;;;5028320;28;20119;-78
2020/12/12 12:12:38;;;;;;;5.57;2.70;;;10.00;80.70;;;;;;5030415;28;20067;-81
2020/12/12 12:15:04;;;;;;;8.57;3.28;;;10.00;80.70;;;;;;5029601;28;20057;-86
2020/12/12 12:17:30;;;;;;;7.80;3.40;;;10.00;80.80;;;;;;5014519;28;20033;-84
2020/12/12 12:19:56;;;;;;;4.65;2.20;;;10.00;81.10;;;;;;5030927;28;20124;-83
2020/12/12 12:22:22;;;;;;;6.30;2.60;;;10.10;81.30;;;;;;5031030;28;20108;-80
2020/12/12 12:24:48;;;;;;;8.30;4.68;;;10.20;81.50;;;;;;5028367;28;20041;-82
2020/12/12 12:27:14;;;;;;;13.50;6.30;;;10.20;81.50;;;;;;5029520;28;20025;-82
2020/12/12 12:29:40;;;;;;;8.70;5.25;;;10.30;82.00;;;;;;5027698;28;20476;-82
2020/12/12 12:32:06;;;;;;;12.52;5.20;;;10.40;82.10;;;;;;5028329;28;20116;-82
2020/12/12 12:34:32;;;;;;;11.35;4.68;;;10.50;82.20;;;;;;5011291;28;20059;-82
2020/12/12 12:36:58;;;;;;;11.68;4.50;;;10.50;82.20;;;;;;5027813;28;20041;-81
2020/12/12 12:39:24;;;;;;;9.82;3.70;;;10.60;82.30;;;;;;5027074;28;20112;-81
2020/12/12 12:41:50;;;;;;;10.20;2.95;;;10.60;82.20;;;;;;5012675;28;20471;-83
2020/12/12 12:44:17;;;;;;;6.38;3.28;;;10.60;82.50;;;;;;5029297;28;20025;-80
2020/12/12 12:46:45;;;;;;;7.63;3.70;;;10.60;82.00;;;;;;5028994;28;20239;-79
2020/12/12 12:49:11;;;;;;;8.32;4.05;;;10.60;82.20;;;;;;5028670;28;20025;-78
2020/12/12 12:51:38;;;;;;;9.15;4.70;;;10.70;82.70;;;;;;5028558;28;20083;-81
2020/12/12 12:54:05;;;;;;;10.48;4.53;;;10.80;82.90;;;;;;5029215;28;20112;-79
2020/12/12 12:56:31;;;;;;;38.25;13.93;;;10.80;82.90;;;;;;5027176;28;20029;-77
2020/12/12 12:58:57;;;;;;;42.22;17.65;;;10.90;83.00;;;;;;5010533;28;20425;-76